sensor_id;sensor_type;location;lat;lon;timestamp;temperature;humidity
69628;DHT22;56850;51.984;5.088;2023-02-27T00:00:17;5.40;54.40
69628;DHT22;56850;51.984;5.088;2023-02-27T00:02:46;5.50;54.50
69628;DHT22;56850;51.984;5.088;2023-02-27T00:05:14;5.50;54.40
69628;DHT22;56850;51.984;5.088;2023-02-27T00:07:41;5.50;54.40
69628;DHT22;56850;51.984;5.088;2023-02-27T00:10:10;5.40;54.50
69628;DHT22;56850;51.984;5.088;2023-02-27T00:12:37;5.40;54.50
69628;DHT22;56850;51.984;5.088;2023-02-27T00:15:11;5.40;54.60
69628;DHT22;56850;51.984;5.088;2023-02-27T00:17:38;5.40;54.60
69628;DHT22;56850;51.984;5.088;2023-02-27T00:20:08;5.40;54.60
69628;DHT22;56850;51.984;5.088;2023-02-27T00:22:39;5.40;54.70
69628;DHT22;56850;51.984;5.088;2023-02-27T00:25:07;5.40;54.70
69628;DHT22;56850;51.984;5.088;2023-02-27T00:27:34;5.40;54.80
69628;DHT22;56850;51.984;5.088;2023-02-27T00:30:07;5.30;54.80
69628;DHT22;56850;51.984;5.088;2023-02-27T00:32:34;5.30;54.90
69628;DHT22;56850;51.984;5.088;2023-02-27T00:35:03;5.30;54.90
69628;DHT22;56850;51.984;5.088;2023-02-27T00:37:31;5.30;54.90
69628;DHT22;56850;51.984;5.088;2023-02-27T00:39:58;5.40;54.90
69628;DHT22;56850;51.984;5.088;2023-02-27T00:42:24;5.30;54.90
69628;DHT22;56850;51.984;5.088;2023-02-27T00:44:53;5.30;54.90
69628;DHT22;56850;51.984;5.088;2023-02-27T00:47:20;5.30;55.00
69628;DHT22;56850;51.984;5.088;2023-02-27T00:49:47;5.30;55.00
69628;DHT22;56850;51.984;5.088;2023-02-27T00:52:14;5.30;54.90
69628;DHT22;56850;51.984;5.088;2023-02-27T00:54:40;5.20;54.90
69628;DHT22;56850;51.984;5.088;2023-02-27T00:57:07;5.20;55.00
69628;DHT22;56850;51.984;5.088;2023-02-27T00:59:35;5.20;54.90
69628;DHT22;56850;51.984;5.088;2023-02-27T01:02:02;5.20;55.00
69628;DHT22;56850;51.984;5.088;2023-02-27T01:04:29;5.20;54.90
69628;DHT22;56850;51.984;5.088;2023-02-27T01:06:56;5.20;54.90
69628;DHT22;56850;51.984;5.088;2023-02-27T01:09:22;5.10;54.90
69628;DHT22;56850;51.984;5.088;2023-02-27T01:11:51;5.10;55.00
69628;DHT22;56850;51.984;5.088;2023-02-27T01:14:18;5.10;54.90
69628;DHT22;56850;51.984;5.088;2023-02-27T01:16:45;5.00;55.00
69628;DHT22;56850;51.984;5.088;2023-02-27T01:19:14;5.00;55.00
69628;DHT22;56850;51.984;5.088;2023-02-27T01:21:42;5.00;55.00
69628;DHT22;56850;51.984;5.088;2023-02-27T01:24:10;4.90;55.00
69628;DHT22;56850;51.984;5.088;2023-02-27T01:26:39;4.90;55.00
69628;DHT22;56850;51.984;5.088;2023-02-27T01:29:06;4.90;55.00
69628;DHT22;56850;51.984;5.088;2023-02-27T01:31:33;4.90;54.90
69628;DHT22;56850;51.984;5.088;2023-02-27T01:34:00;4.90;54.90
69628;DHT22;56850;51.984;5.088;2023-02-27T01:36:28;4.90;55.00
69628;DHT22;56850;51.984;5.088;2023-02-27T01:38:54;4.90;55.00
69628;DHT22;56850;51.984;5.088;2023-02-27T01:41:21;4.80;55.00
69628;DHT22;56850;51.984;5.088;2023-02-27T01:46:24;4.80;55.20
69628;DHT22;56850;51.984;5.088;2023-02-27T01:48:58;4.80;55.20
69628;DHT22;56850;51.984;5.088;2023-02-27T01:51:30;4.80;55.30
69628;DHT22;56850;51.984;5.088;2023-02-27T01:54:00;4.70;55.30
69628;DHT22;56850;51.984;5.088;2023-02-27T01:56:30;4.70;55.30
69628;DHT22;56850;51.984;5.088;2023-02-27T01:59:00;4.70;55.40
69628;DHT22;56850;51.984;5.088;2023-02-27T02:01:31;4.70;55.40
69628;DHT22;56850;51.984;5.088;2023-02-27T02:04:12;4.70;55.50
69628;DHT22;56850;51.984;5.088;2023-02-27T02:07:04;4.70;55.60
69628;DHT22;56850;51.984;5.088;2023-02-27T02:09:39;4.70;55.50
69628;DHT22;56850;51.984;5.088;2023-02-27T02:12:09;4.70;55.60
69628;DHT22;56850;51.984;5.088;2023-02-27T02:14:38;4.60;55.60
69628;DHT22;56850;51.984;5.088;2023-02-27T02:20:07;4.60;55.60
69628;DHT22;56850;51.984;5.088;2023-02-27T02:46:22;4.30;56.40
69628;DHT22;56850;51.984;5.088;2023-02-27T02:49:42;4.30;56.40
69628;DHT22;56850;51.984;5.088;2023-02-27T02:51:46;4.30;56.50
69628;DHT22;56850;51.984;5.088;2023-02-27T02:54:32;4.20;56.60
69628;DHT22;56850;51.984;5.088;2023-02-27T02:57:08;4.20;56.70
69628;DHT22;56850;51.984;5.088;2023-02-27T02:59:57;4.20;56.70
69628;DHT22;56850;51.984;5.088;2023-02-27T03:02:30;4.20;56.80
69628;DHT22;56850;51.984;5.088;2023-02-27T03:05:05;4.20;56.70
69628;DHT22;56850;51.984;5.088;2023-02-27T03:07:51;4.20;56.70
69628;DHT22;56850;51.984;5.088;2023-02-27T03:12:51;4.20;56.80
69628;DHT22;56850;51.984;5.088;2023-02-27T03:15:29;4.20;56.90
69628;DHT22;56850;51.984;5.088;2023-02-27T03:18:07;4.20;56.90
69628;DHT22;56850;51.984;5.088;2023-02-27T03:20:41;4.10;56.90
69628;DHT22;56850;51.984;5.088;2023-02-27T03:23:28;4.10;56.90
69628;DHT22;56850;51.984;5.088;2023-02-27T03:25:56;4.10;57.00
69628;DHT22;56850;51.984;5.088;2023-02-27T03:28:30;4.10;57.00
69628;DHT22;56850;51.984;5.088;2023-02-27T03:31:30;4.00;57.00
69628;DHT22;56850;51.984;5.088;2023-02-27T03:34:16;4.00;57.20
69628;DHT22;56850;51.984;5.088;2023-02-27T03:37:05;4.00;57.20
69628;DHT22;56850;51.984;5.088;2023-02-27T03:40:03;4.00;57.20
69628;DHT22;56850;51.984;5.088;2023-02-27T03:42:39;4.00;57.20
69628;DHT22;56850;51.984;5.088;2023-02-27T03:48:22;4.00;57.20
69628;DHT22;56850;51.984;5.088;2023-02-27T03:50:49;4.00;57.20
69628;DHT22;56850;51.984;5.088;2023-02-27T03:53:36;4.00;57.20
69628;DHT22;56850;51.984;5.088;2023-02-27T03:56:08;4.00;57.20
69628;DHT22;56850;51.984;5.088;2023-02-27T03:58:35;4.00;57.20
69628;DHT22;56850;51.984;5.088;2023-02-27T04:01:02;4.00;57.20
69628;DHT22;56850;51.984;5.088;2023-02-27T04:03:33;4.00;57.30
69628;DHT22;56850;51.984;5.088;2023-02-27T04:06:01;4.00;57.40
69628;DHT22;56850;51.984;5.088;2023-02-27T04:09:25;3.90;57.40
69628;DHT22;56850;51.984;5.088;2023-02-27T04:12:08;3.90;57.60
69628;DHT22;56850;51.984;5.088;2023-02-27T04:17:17;3.90;57.60
69628;DHT22;56850;51.984;5.088;2023-02-27T04:22:48;3.80;57.70
69628;DHT22;56850;51.984;5.088;2023-02-27T04:25:42;3.80;57.70
69628;DHT22;56850;51.984;5.088;2023-02-27T04:28:18;3.80;57.80
69628;DHT22;56850;51.984;5.088;2023-02-27T04:33:41;3.80;57.80
69628;DHT22;56850;51.984;5.088;2023-02-27T04:36:15;3.90;57.80
69628;DHT22;56850;51.984;5.088;2023-02-27T04:38:48;3.80;57.80
69628;DHT22;56850;51.984;5.088;2023-02-27T04:41:22;3.80;57.90
69628;DHT22;56850;51.984;5.088;2023-02-27T04:43:51;3.80;57.90
69628;DHT22;56850;51.984;5.088;2023-02-27T04:46:23;3.80;57.90
69628;DHT22;56850;51.984;5.088;2023-02-27T04:51:26;3.80;57.90
69628;DHT22;56850;51.984;5.088;2023-02-27T04:56:35;3.80;58.00
69628;DHT22;56850;51.984;5.088;2023-02-27T04:59:33;3.80;58.10
69628;DHT22;56850;51.984;5.088;2023-02-27T05:02:14;3.80;58.10
69628;DHT22;56850;51.984;5.088;2023-02-27T05:04:44;3.80;58.00
69628;DHT22;56850;51.984;5.088;2023-02-27T05:07:16;3.80;58.10
69628;DHT22;56850;51.984;5.088;2023-02-27T05:09:50;3.80;58.10
69628;DHT22;56850;51.984;5.088;2023-02-27T05:12:23;3.80;58.20
69628;DHT22;56850;51.984;5.088;2023-02-27T05:15:12;3.80;58.10
69628;DHT22;56850;51.984;5.088;2023-02-27T05:17:43;3.80;58.10
69628;DHT22;56850;51.984;5.088;2023-02-27T05:20:12;3.70;58.20
69628;DHT22;56850;51.984;5.088;2023-02-27T05:22:52;3.70;58.20
69628;DHT22;56850;51.984;5.088;2023-02-27T05:28:57;3.70;58.20
69628;DHT22;56850;51.984;5.088;2023-02-27T05:34:23;3.70;58.30
69628;DHT22;56850;51.984;5.088;2023-02-27T05:36:56;3.70;58.30
69628;DHT22;56850;51.984;5.088;2023-02-27T05:39:27;3.70;58.30
69628;DHT22;56850;51.984;5.088;2023-02-27T05:41:59;3.60;58.30
69628;DHT22;56850;51.984;5.088;2023-02-27T05:44:31;3.60;58.40
69628;DHT22;56850;51.984;5.088;2023-02-27T05:47:03;3.70;58.30
69628;DHT22;56850;51.984;5.088;2023-02-27T05:49:46;3.70;58.30
69628;DHT22;56850;51.984;5.088;2023-02-27T05:52:16;3.60;58.40
69628;DHT22;56850;51.984;5.088;2023-02-27T05:55:23;3.60;58.40
69628;DHT22;56850;51.984;5.088;2023-02-27T05:57:58;3.60;58.50
69628;DHT22;56850;51.984;5.088;2023-02-27T06:00:40;3.60;58.50
69628;DHT22;56850;51.984;5.088;2023-02-27T06:03:09;3.60;58.60
69628;DHT22;56850;51.984;5.088;2023-02-27T06:05:38;3.60;58.50
69628;DHT22;56850;51.984;5.088;2023-02-27T06:08:07;3.60;58.50
69628;DHT22;56850;51.984;5.088;2023-02-27T06:10:34;3.60;58.60
69628;DHT22;56850;51.984;5.088;2023-02-27T06:13:01;3.60;58.60
69628;DHT22;56850;51.984;5.088;2023-02-27T06:15:27;3.60;58.80
69628;DHT22;56850;51.984;5.088;2023-02-27T06:17:54;3.60;58.90
69628;DHT22;56850;51.984;5.088;2023-02-27T06:20:22;3.60;58.80
69628;DHT22;56850;51.984;5.088;2023-02-27T06:22:49;3.60;58.90
69628;DHT22;56850;51.984;5.088;2023-02-27T06:25:16;3.60;58.90
69628;DHT22;56850;51.984;5.088;2023-02-27T06:27:43;3.60;59.00
69628;DHT22;56850;51.984;5.088;2023-02-27T06:30:10;3.60;59.10
69628;DHT22;56850;51.984;5.088;2023-02-27T06:32:37;3.60;59.10
69628;DHT22;56850;51.984;5.088;2023-02-27T06:35:05;3.60;59.20
69628;DHT22;56850;51.984;5.088;2023-02-27T06:37:32;3.60;59.20
69628;DHT22;56850;51.984;5.088;2023-02-27T06:39:59;3.60;59.30
69628;DHT22;56850;51.984;5.088;2023-02-27T06:42:26;3.60;59.40
69628;DHT22;56850;51.984;5.088;2023-02-27T06:44:56;3.50;59.40
69628;DHT22;56850;51.984;5.088;2023-02-27T06:47:23;3.50;59.50
69628;DHT22;56850;51.984;5.088;2023-02-27T06:49:50;3.50;59.50
69628;DHT22;56850;51.984;5.088;2023-02-27T06:52:17;3.50;59.50
69628;DHT22;56850;51.984;5.088;2023-02-27T06:54:44;3.60;59.60
69628;DHT22;56850;51.984;5.088;2023-02-27T06:57:11;3.50;59.60
69628;DHT22;56850;51.984;5.088;2023-02-27T06:59:38;3.50;59.70
69628;DHT22;56850;51.984;5.088;2023-02-27T07:02:05;3.50;59.70
69628;DHT22;56850;51.984;5.088;2023-02-27T07:04:32;3.50;59.80
69628;DHT22;56850;51.984;5.088;2023-02-27T07:06:59;3.50;59.80
69628;DHT22;56850;51.984;5.088;2023-02-27T07:09:45;3.50;59.80
69628;DHT22;56850;51.984;5.088;2023-02-27T07:12:12;3.50;59.90
69628;DHT22;56850;51.984;5.088;2023-02-27T07:14:39;3.50;60.00
69628;DHT22;56850;51.984;5.088;2023-02-27T07:17:06;3.50;60.10
69628;DHT22;56850;51.984;5.088;2023-02-27T07:19:33;3.50;60.20
69628;DHT22;56850;51.984;5.088;2023-02-27T07:22:02;3.60;60.20
69628;DHT22;56850;51.984;5.088;2023-02-27T07:24:32;3.60;60.30
69628;DHT22;56850;51.984;5.088;2023-02-27T07:26:59;3.60;60.30
69628;DHT22;56850;51.984;5.088;2023-02-27T07:29:26;3.60;60.40
69628;DHT22;56850;51.984;5.088;2023-02-27T07:31:52;3.60;60.40
69628;DHT22;56850;51.984;5.088;2023-02-27T07:34:20;3.70;60.50
69628;DHT22;56850;51.984;5.088;2023-02-27T07:36:46;3.70;60.60
69628;DHT22;56850;51.984;5.088;2023-02-27T07:39:13;3.70;60.60
69628;DHT22;56850;51.984;5.088;2023-02-27T07:41:40;3.70;60.70
69628;DHT22;56850;51.984;5.088;2023-02-27T07:44:15;3.80;60.80
69628;DHT22;56850;51.984;5.088;2023-02-27T07:46:42;3.80;60.80
69628;DHT22;56850;51.984;5.088;2023-02-27T07:49:10;3.80;60.80
69628;DHT22;56850;51.984;5.088;2023-02-27T07:51:37;3.90;60.90
69628;DHT22;56850;51.984;5.088;2023-02-27T07:54:04;3.90;61.00
69628;DHT22;56850;51.984;5.088;2023-02-27T07:56:32;3.90;61.00
69628;DHT22;56850;51.984;5.088;2023-02-27T07:58:59;4.00;61.00
69628;DHT22;56850;51.984;5.088;2023-02-27T08:01:26;4.10;61.00
69628;DHT22;56850;51.984;5.088;2023-02-27T08:03:52;4.10;60.90
69628;DHT22;56850;51.984;5.088;2023-02-27T08:06:19;4.10;61.00
69628;DHT22;56850;51.984;5.088;2023-02-27T08:08:47;4.20;61.00
69628;DHT22;56850;51.984;5.088;2023-02-27T08:11:13;4.20;61.10
69628;DHT22;56850;51.984;5.088;2023-02-27T08:13:41;4.20;61.10
69628;DHT22;56850;51.984;5.088;2023-02-27T08:16:25;4.30;61.10
69628;DHT22;56850;51.984;5.088;2023-02-27T08:18:53;4.40;61.00
69628;DHT22;56850;51.984;5.088;2023-02-27T08:21:20;4.50;61.00
69628;DHT22;56850;51.984;5.088;2023-02-27T08:23:47;4.60;60.90
69628;DHT22;56850;51.984;5.088;2023-02-27T08:26:18;4.60;60.90
69628;DHT22;56850;51.984;5.088;2023-02-27T08:28:45;4.70;60.70
69628;DHT22;56850;51.984;5.088;2023-02-27T08:31:12;4.80;60.60
69628;DHT22;56850;51.984;5.088;2023-02-27T08:33:39;4.80;60.60
69628;DHT22;56850;51.984;5.088;2023-02-27T08:36:06;4.90;60.60
69628;DHT22;56850;51.984;5.088;2023-02-27T08:38:33;5.00;60.50
69628;DHT22;56850;51.984;5.088;2023-02-27T08:41:00;5.00;60.30
69628;DHT22;56850;51.984;5.088;2023-02-27T08:43:27;5.00;60.20
69628;DHT22;56850;51.984;5.088;2023-02-27T08:45:54;5.20;60.20
69628;DHT22;56850;51.984;5.088;2023-02-27T08:48:21;5.20;60.10
69628;DHT22;56850;51.984;5.088;2023-02-27T08:50:50;5.30;59.80
69628;DHT22;56850;51.984;5.088;2023-02-27T08:53:17;5.30;59.60
69628;DHT22;56850;51.984;5.088;2023-02-27T08:55:48;5.40;59.50
69628;DHT22;56850;51.984;5.088;2023-02-27T08:58:16;5.40;59.40
69628;DHT22;56850;51.984;5.088;2023-02-27T09:00:44;5.50;59.30
69628;DHT22;56850;51.984;5.088;2023-02-27T09:03:11;5.60;59.10
69628;DHT22;56850;51.984;5.088;2023-02-27T09:05:40;5.70;59.00
69628;DHT22;56850;51.984;5.088;2023-02-27T09:08:07;5.70;58.90
69628;DHT22;56850;51.984;5.088;2023-02-27T09:10:34;5.80;58.80
69628;DHT22;56850;51.984;5.088;2023-02-27T09:13:01;6.00;58.70
69628;DHT22;56850;51.984;5.088;2023-02-27T09:15:28;6.10;58.70
69628;DHT22;56850;51.984;5.088;2023-02-27T09:17:55;6.20;58.50
69628;DHT22;56850;51.984;5.088;2023-02-27T09:20:31;6.40;58.30
69628;DHT22;56850;51.984;5.088;2023-02-27T09:22:58;6.50;58.10
69628;DHT22;56850;51.984;5.088;2023-02-27T09:25:26;6.70;57.90
69628;DHT22;56850;51.984;5.088;2023-02-27T09:27:53;6.80;57.80
69628;DHT22;56850;51.984;5.088;2023-02-27T09:30:21;6.90;57.50
69628;DHT22;56850;51.984;5.088;2023-02-27T09:32:49;7.00;57.00
69628;DHT22;56850;51.984;5.088;2023-02-27T09:35:16;7.10;57.00
69628;DHT22;56850;51.984;5.088;2023-02-27T09:37:45;7.20;56.50
69628;DHT22;56850;51.984;5.088;2023-02-27T09:40:19;7.20;56.30
69628;DHT22;56850;51.984;5.088;2023-02-27T09:42:47;7.20;56.20
69628;DHT22;56850;51.984;5.088;2023-02-27T09:45:21;7.30;56.10
69628;DHT22;56850;51.984;5.088;2023-02-27T09:48:11;7.40;56.10
69628;DHT22;56850;51.984;5.088;2023-02-27T09:50:39;7.50;56.10
69628;DHT22;56850;51.984;5.088;2023-02-27T09:53:14;7.60;55.90
69628;DHT22;56850;51.984;5.088;2023-02-27T09:55:43;7.70;55.90
69628;DHT22;56850;51.984;5.088;2023-02-27T10:01:04;8.00;55.50
69628;DHT22;56850;51.984;5.088;2023-02-27T10:03:43;8.10;55.30
69628;DHT22;56850;51.984;5.088;2023-02-27T10:14:41;8.60;54.20
69628;DHT22;56850;51.984;5.088;2023-02-27T10:17:29;8.70;53.60
69628;DHT22;56850;51.984;5.088;2023-02-27T10:20:00;8.70;52.90
69628;DHT22;56850;51.984;5.088;2023-02-27T10:22:34;8.80;52.50
69628;DHT22;56850;51.984;5.088;2023-02-27T10:28:01;8.90;51.10
69628;DHT22;56850;51.984;5.088;2023-02-27T10:30:35;8.90;50.60
69628;DHT22;56850;51.984;5.088;2023-02-27T10:33:14;9.00;50.10
69628;DHT22;56850;51.984;5.088;2023-02-27T10:35:44;9.00;49.70
69628;DHT22;56850;51.984;5.088;2023-02-27T10:38:35;9.10;50.00
69628;DHT22;56850;51.984;5.088;2023-02-27T10:41:08;9.20;49.40
69628;DHT22;56850;51.984;5.088;2023-02-27T10:43:35;9.30;49.30
69628;DHT22;56850;51.984;5.088;2023-02-27T10:46:29;9.50;49.00
69628;DHT22;56850;51.984;5.088;2023-02-27T10:48:59;9.60;48.70
69628;DHT22;56850;51.984;5.088;2023-02-27T10:51:30;9.70;47.80
69628;DHT22;56850;51.984;5.088;2023-02-27T10:54:20;9.80;47.20
69628;DHT22;56850;51.984;5.088;2023-02-27T10:56:50;9.80;47.40
69628;DHT22;56850;51.984;5.088;2023-02-27T10:59:25;9.90;47.40
69628;DHT22;56850;51.984;5.088;2023-02-27T11:01:58;10.00;46.90
69628;DHT22;56850;51.984;5.088;2023-02-27T11:04:50;10.10;46.20
69628;DHT22;56850;51.984;5.088;2023-02-27T11:07:46;10.30;46.00
69628;DHT22;56850;51.984;5.088;2023-02-27T11:10:15;10.50;46.10
69628;DHT22;56850;51.984;5.088;2023-02-27T11:13:04;10.70;45.50
69628;DHT22;56850;51.984;5.088;2023-02-27T11:15:34;10.80;45.00
69628;DHT22;56850;51.984;5.088;2023-02-27T11:20:49;10.50;44.90
69628;DHT22;56850;51.984;5.088;2023-02-27T11:23:22;10.30;44.50
69628;DHT22;56850;51.984;5.088;2023-02-27T11:25:49;10.00;44.70
69628;DHT22;56850;51.984;5.088;2023-02-27T11:28:29;9.90;44.70
69628;DHT22;56850;51.984;5.088;2023-02-27T11:31:02;9.70;44.60
69628;DHT22;56850;51.984;5.088;2023-02-27T11:33:37;9.50;44.10
69628;DHT22;56850;51.984;5.088;2023-02-27T11:36:05;9.30;44.40
69628;DHT22;56850;51.984;5.088;2023-02-27T11:38:32;9.20;44.50
69628;DHT22;56850;51.984;5.088;2023-02-27T11:41:04;9.10;44.90
69628;DHT22;56850;51.984;5.088;2023-02-27T11:43:34;9.00;44.90
69628;DHT22;56850;51.984;5.088;2023-02-27T11:46:04;8.90;45.20
69628;DHT22;56850;51.984;5.088;2023-02-27T11:49:07;8.90;45.20
69628;DHT22;56850;51.984;5.088;2023-02-27T11:54:38;8.80;44.90
69628;DHT22;56850;51.984;5.088;2023-02-27T11:57:35;8.70;45.00
69628;DHT22;56850;51.984;5.088;2023-02-27T12:02:59;8.80;45.20
69628;DHT22;56850;51.984;5.088;2023-02-27T12:05:39;8.80;45.00
69628;DHT22;56850;51.984;5.088;2023-02-27T12:11:00;8.70;44.80
69628;DHT22;56850;51.984;5.088;2023-02-27T12:13:46;8.70;45.10
69628;DHT22;56850;51.984;5.088;2023-02-27T12:18:57;9.20;44.50
69628;DHT22;56850;51.984;5.088;2023-02-27T12:21:32;9.70;44.00
69628;DHT22;56850;51.984;5.088;2023-02-27T12:24:06;10.00;43.90
69628;DHT22;56850;51.984;5.088;2023-02-27T12:26:46;10.40;43.60
69628;DHT22;56850;51.984;5.088;2023-02-27T12:29:35;10.70;42.20
69628;DHT22;56850;51.984;5.088;2023-02-27T12:32:22;10.90;42.10
69628;DHT22;56850;51.984;5.088;2023-02-27T12:34:54;11.00;41.50
69628;DHT22;56850;51.984;5.088;2023-02-27T12:37:27;11.00;41.50
69628;DHT22;56850;51.984;5.088;2023-02-27T12:39:58;11.10;41.40
69628;DHT22;56850;51.984;5.088;2023-02-27T12:42:41;11.30;41.50
69628;DHT22;56850;51.984;5.088;2023-02-27T12:54:02;12.00;39.70
69628;DHT22;56850;51.984;5.088;2023-02-27T12:56:55;12.00;39.40
69628;DHT22;56850;51.984;5.088;2023-02-27T13:02:21;11.50;39.40
69628;DHT22;56850;51.984;5.088;2023-02-27T13:05:08;11.10;39.50
69628;DHT22;56850;51.984;5.088;2023-02-27T13:10:35;11.30;39.20
69628;DHT22;56850;51.984;5.088;2023-02-27T13:13:21;11.50;39.00
69628;DHT22;56850;51.984;5.088;2023-02-27T13:16:04;11.80;38.70
69628;DHT22;56850;51.984;5.088;2023-02-27T13:18:44;12.00;38.70
69628;DHT22;56850;51.984;5.088;2023-02-27T13:24:24;12.20;38.40
69628;DHT22;56850;51.984;5.088;2023-02-27T13:27:14;12.40;38.20
69628;DHT22;56850;51.984;5.088;2023-02-27T13:29:48;12.50;37.90
69628;DHT22;56850;51.984;5.088;2023-02-27T13:40:35;11.60;38.90
69628;DHT22;56850;51.984;5.088;2023-02-27T13:45:59;11.00;39.80
69628;DHT22;56850;51.984;5.088;2023-02-27T13:48:37;10.80;40.20
69628;DHT22;56850;51.984;5.088;2023-02-27T13:51:09;10.60;40.60
69628;DHT22;56850;51.984;5.088;2023-02-27T13:53:37;10.50;40.80
69628;DHT22;56850;51.984;5.088;2023-02-27T13:56:19;10.50;41.00
69628;DHT22;56850;51.984;5.088;2023-02-27T13:58:50;10.40;41.20
69628;DHT22;56850;51.984;5.088;2023-02-27T14:01:22;10.40;41.30
69628;DHT22;56850;51.984;5.088;2023-02-27T14:03:53;10.30;41.60
69628;DHT22;56850;51.984;5.088;2023-02-27T14:06:24;10.20;41.70
69628;DHT22;56850;51.984;5.088;2023-02-27T14:08:53;10.10;42.10
69628;DHT22;56850;51.984;5.088;2023-02-27T14:11:39;10.10;42.30
69628;DHT22;56850;51.984;5.088;2023-02-27T14:14:47;10.10;42.60
69628;DHT22;56850;51.984;5.088;2023-02-27T14:23:09;9.80;42.40
69628;DHT22;56850;51.984;5.088;2023-02-27T14:31:35;9.80;43.30
69628;DHT22;56850;51.984;5.088;2023-02-27T14:34:04;9.90;43.10
69628;DHT22;56850;51.984;5.088;2023-02-27T14:36:39;10.00;43.30
69628;DHT22;56850;51.984;5.088;2023-02-27T14:39:27;10.30;43.40
69628;DHT22;56850;51.984;5.088;2023-02-27T14:44:45;11.00;42.70
69628;DHT22;56850;51.984;5.088;2023-02-27T14:47:23;11.30;42.00
69628;DHT22;56850;51.984;5.088;2023-02-27T14:49:51;11.50;41.60
69628;DHT22;56850;51.984;5.088;2023-02-27T14:52:20;11.20;40.80
69628;DHT22;56850;51.984;5.088;2023-02-27T14:54:49;11.00;40.80
69628;DHT22;56850;51.984;5.088;2023-02-27T14:57:23;10.70;41.10
69628;DHT22;56850;51.984;5.088;2023-02-27T14:59:53;10.50;41.20
69628;DHT22;56850;51.984;5.088;2023-02-27T15:02:21;10.40;41.50
69628;DHT22;56850;51.984;5.088;2023-02-27T15:04:54;10.30;41.80
69628;DHT22;56850;51.984;5.088;2023-02-27T15:07:23;10.20;41.90
69628;DHT22;56850;51.984;5.088;2023-02-27T15:10:02;10.10;42.20
69628;DHT22;56850;51.984;5.088;2023-02-27T15:12:32;10.30;42.50
69628;DHT22;56850;51.984;5.088;2023-02-27T15:15:04;10.70;42.40
69628;DHT22;56850;51.984;5.088;2023-02-27T15:17:43;11.00;42.20
69628;DHT22;56850;51.984;5.088;2023-02-27T15:20:28;11.10;41.40
69628;DHT22;56850;51.984;5.088;2023-02-27T15:23:00;10.90;40.70
69628;DHT22;56850;51.984;5.088;2023-02-27T15:25:29;10.60;41.00
69628;DHT22;56850;51.984;5.088;2023-02-27T15:28:05;10.50;41.40
69628;DHT22;56850;51.984;5.088;2023-02-27T15:30:33;10.30;41.40
69628;DHT22;56850;51.984;5.088;2023-02-27T15:33:00;10.10;41.60
69628;DHT22;56850;51.984;5.088;2023-02-27T15:35:35;10.00;41.70
69628;DHT22;56850;51.984;5.088;2023-02-27T15:38:03;9.90;41.80
69628;DHT22;56850;51.984;5.088;2023-02-27T15:40:31;10.00;42.00
69628;DHT22;56850;51.984;5.088;2023-02-27T15:42:59;10.10;42.00
69628;DHT22;56850;51.984;5.088;2023-02-27T15:45:30;10.30;41.70
69628;DHT22;56850;51.984;5.088;2023-02-27T15:47:58;10.30;41.50
69628;DHT22;56850;51.984;5.088;2023-02-27T15:50:27;10.20;41.30
69628;DHT22;56850;51.984;5.088;2023-02-27T15:55:37;10.10;41.80
69628;DHT22;56850;51.984;5.088;2023-02-27T16:00:47;10.20;41.90
69628;DHT22;56850;51.984;5.088;2023-02-27T16:03:18;10.20;41.90
69628;DHT22;56850;51.984;5.088;2023-02-27T16:05:50;10.30;42.00
69628;DHT22;56850;51.984;5.088;2023-02-27T16:08:19;10.30;42.00
69628;DHT22;56850;51.984;5.088;2023-02-27T16:10:46;10.30;42.30
69628;DHT22;56850;51.984;5.088;2023-02-27T16:13:27;10.30;42.20
69628;DHT22;56850;51.984;5.088;2023-02-27T16:16:24;10.10;42.40
69628;DHT22;56850;51.984;5.088;2023-02-27T16:18:56;10.00;42.60
69628;DHT22;56850;51.984;5.088;2023-02-27T16:21:28;9.90;42.70
69628;DHT22;56850;51.984;5.088;2023-02-27T16:24:17;9.70;42.90
69628;DHT22;56850;51.984;5.088;2023-02-27T16:26:49;9.60;43.20
69628;DHT22;56850;51.984;5.088;2023-02-27T16:29:30;9.60;43.40
69628;DHT22;56850;51.984;5.088;2023-02-27T16:31:59;9.50;43.40
69628;DHT22;56850;51.984;5.088;2023-02-27T16:34:33;9.60;43.60
69628;DHT22;56850;51.984;5.088;2023-02-27T16:37:22;9.50;43.50
69628;DHT22;56850;51.984;5.088;2023-02-27T16:39:52;9.60;43.60
69628;DHT22;56850;51.984;5.088;2023-02-27T16:42:20;9.60;43.60
69628;DHT22;56850;51.984;5.088;2023-02-27T16:44:47;9.50;43.60
69628;DHT22;56850;51.984;5.088;2023-02-27T16:47:14;9.50;43.60
69628;DHT22;56850;51.984;5.088;2023-02-27T16:49:41;9.40;43.80
69628;DHT22;56850;51.984;5.088;2023-02-27T16:52:10;9.40;44.00
69628;DHT22;56850;51.984;5.088;2023-02-27T16:54:37;9.40;44.00
69628;DHT22;56850;51.984;5.088;2023-02-27T16:57:04;9.30;44.20
69628;DHT22;56850;51.984;5.088;2023-02-27T16:59:34;9.30;44.30
69628;DHT22;56850;51.984;5.088;2023-02-27T17:02:05;9.20;44.40
69628;DHT22;56850;51.984;5.088;2023-02-27T17:04:32;9.10;44.50
69628;DHT22;56850;51.984;5.088;2023-02-27T17:07:00;9.10;44.70
69628;DHT22;56850;51.984;5.088;2023-02-27T17:09:27;9.00;44.80
69628;DHT22;56850;51.984;5.088;2023-02-27T17:11:56;9.00;44.90
69628;DHT22;56850;51.984;5.088;2023-02-27T17:14:23;8.90;45.00
69628;DHT22;56850;51.984;5.088;2023-02-27T17:16:51;8.80;45.20
69628;DHT22;56850;51.984;5.088;2023-02-27T17:19:18;8.80;45.20
69628;DHT22;56850;51.984;5.088;2023-02-27T17:21:47;8.80;45.40
69628;DHT22;56850;51.984;5.088;2023-02-27T17:24:14;8.80;45.60
69628;DHT22;56850;51.984;5.088;2023-02-27T17:26:41;8.80;45.80
69628;DHT22;56850;51.984;5.088;2023-02-27T17:29:08;8.80;45.90
69628;DHT22;56850;51.984;5.088;2023-02-27T17:31:35;8.70;46.00
69628;DHT22;56850;51.984;5.088;2023-02-27T17:34:04;8.80;46.00
69628;DHT22;56850;51.984;5.088;2023-02-27T17:36:31;8.80;46.10
69628;DHT22;56850;51.984;5.088;2023-02-27T17:38:58;8.70;46.10
69628;DHT22;56850;51.984;5.088;2023-02-27T17:41:29;8.70;46.00
69628;DHT22;56850;51.984;5.088;2023-02-27T17:43:57;8.60;46.20
69628;DHT22;56850;51.984;5.088;2023-02-27T17:46:26;8.60;46.30
69628;DHT22;56850;51.984;5.088;2023-02-27T17:48:54;8.60;46.50
69628;DHT22;56850;51.984;5.088;2023-02-27T17:51:27;8.60;46.60
69628;DHT22;56850;51.984;5.088;2023-02-27T17:53:54;8.50;46.60
69628;DHT22;56850;51.984;5.088;2023-02-27T17:56:22;8.50;46.70
69628;DHT22;56850;51.984;5.088;2023-02-27T17:58:49;8.50;46.70
69628;DHT22;56850;51.984;5.088;2023-02-27T18:01:19;8.50;46.80
69628;DHT22;56850;51.984;5.088;2023-02-27T18:03:48;8.50;47.00
69628;DHT22;56850;51.984;5.088;2023-02-27T18:06:18;8.50;47.10
69628;DHT22;56850;51.984;5.088;2023-02-27T18:08:45;8.50;47.20
69628;DHT22;56850;51.984;5.088;2023-02-27T18:11:14;8.50;47.30
69628;DHT22;56850;51.984;5.088;2023-02-27T18:13:42;8.50;47.30
69628;DHT22;56850;51.984;5.088;2023-02-27T18:16:09;8.40;47.40
69628;DHT22;56850;51.984;5.088;2023-02-27T18:18:41;8.40;47.60
69628;DHT22;56850;51.984;5.088;2023-02-27T18:21:13;8.40;47.70
69628;DHT22;56850;51.984;5.088;2023-02-27T18:23:42;8.30;47.70
69628;DHT22;56850;51.984;5.088;2023-02-27T18:26:16;8.30;47.80